sensor_id;sensor_type;location;lat;lon;timestamp;P1;durP1;ratioP1;P2;durP2;ratioP2
56291;SDS011;54008;53.606;9.462;2022-11-20T00:01:04;5.78;;;3.55;;
56291;SDS011;54008;53.606;9.462;2022-11-20T00:03:33;8.10;;;4.30;;
56291;SDS011;54008;53.606;9.462;2022-11-20T00:06:03;6.85;;;3.88;;
56291;SDS011;54008;53.606;9.462;2022-11-20T00:08:31;7.25;;;3.80;;
56291;SDS011;54008;53.606;9.462;2022-11-20T00:10:56;10.82;;;3.53;;
56291;SDS011;54008;53.606;9.462;2022-11-20T00:13:21;5.57;;;3.30;;
56291;SDS011;54008;53.606;9.462;2022-11-20T00:15:47;5.75;;;2.95;;
56291;SDS011;54008;53.606;9.462;2022-11-20T00:18:12;6.97;;;4.28;;
56291;SDS011;54008;53.606;9.462;2022-11-20T00:20:37;9.70;;;3.13;;
56291;SDS011;54008;53.606;9.462;2022-11-20T00:23:03;4.63;;;3.08;;
56291;SDS011;54008;53.606;9.462;2022-11-20T00:25:28;8.77;;;3.60;;
56291;SDS011;54008;53.606;9.462;2022-11-20T00:27:53;8.85;;;3.92;;
56291;SDS011;54008;53.606;9.462;2022-11-20T00:30:18;7.95;;;3.15;;
56291;SDS011;54008;53.606;9.462;2022-11-20T00:32:44;8.55;;;3.60;;
56291;SDS011;54008;53.606;9.462;2022-11-20T00:35:09;6.25;;;2.90;;
56291;SDS011;54008;53.606;9.462;2022-11-20T00:37:34;4.90;;;3.10;;
56291;SDS011;54008;53.606;9.462;2022-11-20T00:40:00;6.20;;;2.95;;
56291;SDS011;54008;53.606;9.462;2022-11-20T00:42:25;5.22;;;3.53;;
56291;SDS011;54008;53.606;9.462;2022-11-20T00:44:50;4.95;;;2.95;;
56291;SDS011;54008;53.606;9.462;2022-11-20T00:47:16;9.00;;;3.15;;
56291;SDS011;54008;53.606;9.462;2022-11-20T00:49:41;6.72;;;3.25;;
56291;SDS011;54008;53.606;9.462;2022-11-20T00:52:06;4.90;;;3.00;;
56291;SDS011;54008;53.606;9.462;2022-11-20T00:54:31;6.70;;;3.35;;
56291;SDS011;54008;53.606;9.462;2022-11-20T00:56:57;4.05;;;2.50;;
56291;SDS011;54008;53.606;9.462;2022-11-20T00:59:22;8.02;;;3.17;;
56291;SDS011;54008;53.606;9.462;2022-11-20T01:01:47;10.32;;;2.90;;
56291;SDS011;54008;53.606;9.462;2022-11-20T01:04:12;7.28;;;2.72;;
56291;SDS011;54008;53.606;9.462;2022-11-20T01:06:38;5.45;;;2.90;;
56291;SDS011;54008;53.606;9.462;2022-11-20T01:09:11;5.78;;;3.55;;
56291;SDS011;54008;53.606;9.462;2022-11-20T01:11:39;5.30;;;2.88;;
56291;SDS011;54008;53.606;9.462;2022-11-20T01:14:07;8.13;;;3.25;;
56291;SDS011;54008;53.606;9.462;2022-11-20T01:16:40;7.13;;;3.28;;
56291;SDS011;54008;53.606;9.462;2022-11-20T01:19:09;6.78;;;2.85;;
56291;SDS011;54008;53.606;9.462;2022-11-20T01:21:39;6.07;;;3.08;;
56291;SDS011;54008;53.606;9.462;2022-11-20T01:24:09;7.68;;;3.03;;
56291;SDS011;54008;53.606;9.462;2022-11-20T01:26:37;6.88;;;3.30;;
56291;SDS011;54008;53.606;9.462;2022-11-20T01:29:04;8.18;;;3.25;;
56291;SDS011;54008;53.606;9.462;2022-11-20T01:31:31;9.15;;;3.10;;
56291;SDS011;54008;53.606;9.462;2022-11-20T01:33:59;4.43;;;3.22;;
56291;SDS011;54008;53.606;9.462;2022-11-20T01:36:27;9.68;;;3.30;;
56291;SDS011;54008;53.606;9.462;2022-11-20T01:38:55;5.57;;;3.80;;
56291;SDS011;54008;53.606;9.462;2022-11-20T01:41:22;8.45;;;3.47;;
56291;SDS011;54008;53.606;9.462;2022-11-20T01:44:06;6.72;;;3.55;;
56291;SDS011;54008;53.606;9.462;2022-11-20T01:46:35;5.32;;;3.42;;
56291;SDS011;54008;53.606;9.462;2022-11-20T01:51:50;8.13;;;3.65;;
56291;SDS011;54008;53.606;9.462;2022-11-20T01:54:22;5.57;;;3.35;;
56291;SDS011;54008;53.606;9.462;2022-11-20T01:56:51;5.70;;;3.72;;
56291;SDS011;54008;53.606;9.462;2022-11-20T01:59:20;8.27;;;4.07;;
56291;SDS011;54008;53.606;9.462;2022-11-20T02:01:49;8.20;;;3.33;;
56291;SDS011;54008;53.606;9.462;2022-11-20T02:04:14;6.28;;;3.60;;
56291;SDS011;54008;53.606;9.462;2022-11-20T02:06:42;6.38;;;3.70;;
56291;SDS011;54008;53.606;9.462;2022-11-20T02:09:12;6.68;;;3.13;;
56291;SDS011;54008;53.606;9.462;2022-11-20T02:11:38;6.43;;;3.25;;
56291;SDS011;54008;53.606;9.462;2022-11-20T02:14:04;6.35;;;3.63;;
56291;SDS011;54008;53.606;9.462;2022-11-20T02:16:31;6.82;;;3.38;;
56291;SDS011;54008;53.606;9.462;2022-11-20T02:19:01;6.40;;;3.25;;
56291;SDS011;54008;53.606;9.462;2022-11-20T02:21:34;5.80;;;3.33;;
56291;SDS011;54008;53.606;9.462;2022-11-20T02:24:12;5.43;;;2.95;;
56291;SDS011;54008;53.606;9.462;2022-11-20T02:30:03;6.78;;;3.58;;
56291;SDS011;54008;53.606;9.462;2022-11-20T02:32:29;6.63;;;2.97;;
56291;SDS011;54008;53.606;9.462;2022-11-20T02:34:58;6.15;;;3.47;;
56291;SDS011;54008;53.606;9.462;2022-11-20T02:37:32;7.68;;;3.60;;
56291;SDS011;54008;53.606;9.462;2022-11-20T02:40:01;8.15;;;3.65;;
56291;SDS011;54008;53.606;9.462;2022-11-20T02:42:26;6.07;;;2.72;;
56291;SDS011;54008;53.606;9.462;2022-11-20T02:44:52;5.43;;;3.28;;
56291;SDS011;54008;53.606;9.462;2022-11-20T02:47:17;6.55;;;3.20;;
56291;SDS011;54008;53.606;9.462;2022-11-20T02:49:42;4.68;;;2.97;;
56291;SDS011;54008;53.606;9.462;2022-11-20T02:52:07;6.30;;;3.10;;
56291;SDS011;54008;53.606;9.462;2022-11-20T02:54:33;9.32;;;3.30;;
56291;SDS011;54008;53.606;9.462;2022-11-20T02:56:58;7.97;;;4.03;;
56291;SDS011;54008;53.606;9.462;2022-11-20T02:59:23;6.15;;;3.03;;
56291;SDS011;54008;53.606;9.462;2022-11-20T03:01:48;5.70;;;3.10;;
56291;SDS011;54008;53.606;9.462;2022-11-20T03:04:14;5.47;;;3.10;;
56291;SDS011;54008;53.606;9.462;2022-11-20T03:06:39;4.80;;;2.97;;
56291;SDS011;54008;53.606;9.462;2022-11-20T03:09:04;6.88;;;3.70;;
56291;SDS011;54008;53.606;9.462;2022-11-20T03:11:29;5.82;;;2.97;;
56291;SDS011;54008;53.606;9.462;2022-11-20T03:13:55;7.65;;;3.45;;
56291;SDS011;54008;53.606;9.462;2022-11-20T03:16:21;5.03;;;2.83;;
56291;SDS011;54008;53.606;9.462;2022-11-20T03:18:47;4.93;;;3.00;;
56291;SDS011;54008;53.606;9.462;2022-11-20T03:21:13;5.82;;;2.63;;
56291;SDS011;54008;53.606;9.462;2022-11-20T03:23:40;6.18;;;2.85;;
56291;SDS011;54008;53.606;9.462;2022-11-20T03:26:16;6.35;;;3.00;;
56291;SDS011;54008;53.606;9.462;2022-11-20T03:28:53;6.10;;;3.17;;
56291;SDS011;54008;53.606;9.462;2022-11-20T03:31:27;7.43;;;3.20;;
56291;SDS011;54008;53.606;9.462;2022-11-20T03:33:54;5.13;;;2.88;;
56291;SDS011;54008;53.606;9.462;2022-11-20T03:36:20;5.43;;;3.03;;
56291;SDS011;54008;53.606;9.462;2022-11-20T03:38:46;5.18;;;2.88;;
56291;SDS011;54008;53.606;9.462;2022-11-20T03:41:16;5.85;;;3.42;;
56291;SDS011;54008;53.606;9.462;2022-11-20T03:43:47;4.85;;;2.95;;
56291;SDS011;54008;53.606;9.462;2022-11-20T03:46:15;4.43;;;3.00;;
56291;SDS011;54008;53.606;9.462;2022-11-20T03:48:41;5.90;;;3.15;;
56291;SDS011;54008;53.606;9.462;2022-11-20T03:51:10;5.15;;;3.05;;
56291;SDS011;54008;53.606;9.462;2022-11-20T03:53:37;6.13;;;2.80;;
56291;SDS011;54008;53.606;9.462;2022-11-20T03:56:03;6.25;;;2.78;;
56291;SDS011;54008;53.606;9.462;2022-11-20T03:58:29;5.75;;;3.13;;
56291;SDS011;54008;53.606;9.462;2022-11-20T04:00:55;4.63;;;3.15;;
56291;SDS011;54008;53.606;9.462;2022-11-20T04:03:20;5.18;;;3.17;;
56291;SDS011;54008;53.606;9.462;2022-11-20T04:05:45;6.40;;;3.05;;
56291;SDS011;54008;53.606;9.462;2022-11-20T04:08:11;7.32;;;3.38;;
56291;SDS011;54008;53.606;9.462;2022-11-20T04:10:36;5.80;;;3.08;;
56291;SDS011;54008;53.606;9.462;2022-11-20T04:13:01;6.13;;;3.08;;
56291;SDS011;54008;53.606;9.462;2022-11-20T04:15:26;8.10;;;3.35;;
56291;SDS011;54008;53.606;9.462;2022-11-20T04:17:52;6.75;;;2.88;;
56291;SDS011;54008;53.606;9.462;2022-11-20T04:20:18;4.82;;;2.90;;
56291;SDS011;54008;53.606;9.462;2022-11-20T04:22:44;5.82;;;3.00;;
56291;SDS011;54008;53.606;9.462;2022-11-20T04:25:10;4.93;;;2.67;;
56291;SDS011;54008;53.606;9.462;2022-11-20T04:27:35;4.75;;;2.83;;
56291;SDS011;54008;53.606;9.462;2022-11-20T04:30:00;6.22;;;3.20;;
56291;SDS011;54008;53.606;9.462;2022-11-20T04:32:25;6.65;;;3.05;;
56291;SDS011;54008;53.606;9.462;2022-11-20T04:34:51;5.90;;;3.10;;
56291;SDS011;54008;53.606;9.462;2022-11-20T04:37:16;5.82;;;3.22;;
56291;SDS011;54008;53.606;9.462;2022-11-20T04:39:41;5.20;;;3.15;;
56291;SDS011;54008;53.606;9.462;2022-11-20T04:42:08;5.47;;;2.97;;
56291;SDS011;54008;53.606;9.462;2022-11-20T04:44:52;4.60;;;2.75;;
56291;SDS011;54008;53.606;9.462;2022-11-20T04:47:17;5.57;;;3.30;;
56291;SDS011;54008;53.606;9.462;2022-11-20T04:49:43;6.65;;;3.10;;
56291;SDS011;54008;53.606;9.462;2022-11-20T04:52:08;5.57;;;2.85;;
56291;SDS011;54008;53.606;9.462;2022-11-20T04:54:33;6.35;;;3.15;;
56291;SDS011;54008;53.606;9.462;2022-11-20T04:56:58;12.43;;;3.67;;
56291;SDS011;54008;53.606;9.462;2022-11-20T04:59:24;12.13;;;3.83;;
56291;SDS011;54008;53.606;9.462;2022-11-20T05:01:49;6.75;;;2.95;;
56291;SDS011;54008;53.606;9.462;2022-11-20T05:04:14;4.95;;;2.83;;
56291;SDS011;54008;53.606;9.462;2022-11-20T05:06:39;6.55;;;3.05;;
56291;SDS011;54008;53.606;9.462;2022-11-20T05:09:05;9.63;;;3.30;;
56291;SDS011;54008;53.606;9.462;2022-11-20T05:11:31;4.47;;;2.92;;
56291;SDS011;54008;53.606;9.462;2022-11-20T05:13:57;5.55;;;2.90;;
56291;SDS011;54008;53.606;9.462;2022-11-20T05:16:23;6.28;;;3.00;;
56291;SDS011;54008;53.606;9.462;2022-11-20T05:18:51;4.95;;;2.90;;
56291;SDS011;54008;53.606;9.462;2022-11-20T05:21:18;5.95;;;3.05;;
56291;SDS011;54008;53.606;9.462;2022-11-20T05:23:43;6.43;;;2.97;;
56291;SDS011;54008;53.606;9.462;2022-11-20T05:26:14;8.63;;;4.13;;
56291;SDS011;54008;53.606;9.462;2022-11-20T05:28:42;7.35;;;4.03;;
56291;SDS011;54008;53.606;9.462;2022-11-20T05:31:08;6.95;;;3.33;;
56291;SDS011;54008;53.606;9.462;2022-11-20T05:33:35;6.05;;;3.50;;
56291;SDS011;54008;53.606;9.462;2022-11-20T05:36:02;6.10;;;3.05;;
56291;SDS011;54008;53.606;9.462;2022-11-20T05:38:28;5.78;;;3.60;;
56291;SDS011;54008;53.606;9.462;2022-11-20T05:40:54;6.50;;;3.50;;
56291;SDS011;54008;53.606;9.462;2022-11-20T05:43:19;7.50;;;3.78;;
56291;SDS011;54008;53.606;9.462;2022-11-20T05:45:51;8.45;;;3.22;;
56291;SDS011;54008;53.606;9.462;2022-11-20T05:48:17;6.18;;;3.40;;
56291;SDS011;54008;53.606;9.462;2022-11-20T05:50:43;5.18;;;3.50;;
56291;SDS011;54008;53.606;9.462;2022-11-20T05:53:08;8.35;;;3.60;;
56291;SDS011;54008;53.606;9.462;2022-11-20T05:55:33;6.30;;;3.15;;
56291;SDS011;54008;53.606;9.462;2022-11-20T05:57:58;7.57;;;3.63;;
56291;SDS011;54008;53.606;9.462;2022-11-20T06:00:24;4.10;;;2.97;;
56291;SDS011;54008;53.606;9.462;2022-11-20T06:02:49;7.43;;;2.75;;
56291;SDS011;54008;53.606;9.462;2022-11-20T06:05:14;6.47;;;3.30;;
56291;SDS011;54008;53.606;9.462;2022-11-20T06:07:39;6.28;;;3.35;;
56291;SDS011;54008;53.606;9.462;2022-11-20T06:10:05;7.85;;;3.50;;
56291;SDS011;54008;53.606;9.462;2022-11-20T06:12:31;4.72;;;2.72;;
56291;SDS011;54008;53.606;9.462;2022-11-20T06:14:57;6.15;;;3.72;;
56291;SDS011;54008;53.606;9.462;2022-11-20T06:17:23;4.88;;;2.95;;
56291;SDS011;54008;53.606;9.462;2022-11-20T06:19:48;5.60;;;2.92;;
56291;SDS011;54008;53.606;9.462;2022-11-20T06:22:13;6.95;;;3.38;;
56291;SDS011;54008;53.606;9.462;2022-11-20T06:24:38;8.95;;;3.55;;
56291;SDS011;54008;53.606;9.462;2022-11-20T06:27:04;6.10;;;2.80;;
56291;SDS011;54008;53.606;9.462;2022-11-20T06:29:29;7.60;;;3.65;;
56291;SDS011;54008;53.606;9.462;2022-11-20T06:31:54;5.82;;;3.55;;
56291;SDS011;54008;53.606;9.462;2022-11-20T06:34:19;5.93;;;3.08;;
56291;SDS011;54008;53.606;9.462;2022-11-20T06:36:45;5.68;;;3.22;;
56291;SDS011;54008;53.606;9.462;2022-11-20T06:39:10;7.40;;;3.95;;
56291;SDS011;54008;53.606;9.462;2022-11-20T06:41:35;9.73;;;4.50;;
56291;SDS011;54008;53.606;9.462;2022-11-20T06:44:01;8.93;;;4.00;;
56291;SDS011;54008;53.606;9.462;2022-11-20T06:46:26;6.45;;;3.72;;
56291;SDS011;54008;53.606;9.462;2022-11-20T06:48:51;9.23;;;3.80;;
56291;SDS011;54008;53.606;9.462;2022-11-20T06:51:16;6.78;;;4.18;;
56291;SDS011;54008;53.606;9.462;2022-11-20T06:53:42;8.63;;;4.40;;
56291;SDS011;54008;53.606;9.462;2022-11-20T06:56:08;8.90;;;3.72;;
56291;SDS011;54008;53.606;9.462;2022-11-20T06:58:34;9.57;;;3.95;;
56291;SDS011;54008;53.606;9.462;2022-11-20T07:01:00;9.93;;;3.83;;
56291;SDS011;54008;53.606;9.462;2022-11-20T07:03:27;8.40;;;4.35;;
56291;SDS011;54008;53.606;9.462;2022-11-20T07:05:56;6.50;;;4.00;;
56291;SDS011;54008;53.606;9.462;2022-11-20T07:08:22;6.43;;;3.53;;
56291;SDS011;54008;53.606;9.462;2022-11-20T07:10:48;7.70;;;3.95;;
56291;SDS011;54008;53.606;9.462;2022-11-20T07:13:13;7.90;;;4.50;;
56291;SDS011;54008;53.606;9.462;2022-11-20T07:15:38;9.10;;;4.90;;
56291;SDS011;54008;53.606;9.462;2022-11-20T07:18:04;9.98;;;3.97;;
56291;SDS011;54008;53.606;9.462;2022-11-20T07:20:29;7.57;;;4.00;;
56291;SDS011;54008;53.606;9.462;2022-11-20T07:22:55;8.23;;;4.22;;
56291;SDS011;54008;53.606;9.462;2022-11-20T07:25:21;7.03;;;3.72;;
56291;SDS011;54008;53.606;9.462;2022-11-20T07:27:47;6.82;;;3.45;;
56291;SDS011;54008;53.606;9.462;2022-11-20T07:30:13;8.18;;;4.75;;
56291;SDS011;54008;53.606;9.462;2022-11-20T07:32:39;7.07;;;3.90;;
56291;SDS011;54008;53.606;9.462;2022-11-20T07:35:05;6.60;;;4.07;;
56291;SDS011;54008;53.606;9.462;2022-11-20T07:37:30;15.00;;;4.07;;
56291;SDS011;54008;53.606;9.462;2022-11-20T07:39:59;5.70;;;3.47;;
56291;SDS011;54008;53.606;9.462;2022-11-20T07:42:24;8.82;;;5.03;;
56291;SDS011;54008;53.606;9.462;2022-11-20T07:44:49;9.85;;;5.03;;
56291;SDS011;54008;53.606;9.462;2022-11-20T07:47:14;8.30;;;4.63;;
56291;SDS011;54008;53.606;9.462;2022-11-20T07:49:40;6.13;;;4.03;;
56291;SDS011;54008;53.606;9.462;2022-11-20T07:52:05;9.63;;;4.50;;
56291;SDS011;54008;53.606;9.462;2022-11-20T07:54:30;7.15;;;3.53;;
56291;SDS011;54008;53.606;9.462;2022-11-20T07:56:55;6.10;;;3.47;;
56291;SDS011;54008;53.606;9.462;2022-11-20T07:59:21;6.97;;;3.63;;
56291;SDS011;54008;53.606;9.462;2022-11-20T08:01:46;6.70;;;3.88;;
56291;SDS011;54008;53.606;9.462;2022-11-20T08:04:11;7.28;;;3.63;;
56291;SDS011;54008;53.606;9.462;2022-11-20T08:06:36;5.80;;;3.22;;
56291;SDS011;54008;53.606;9.462;2022-11-20T08:09:02;7.55;;;3.47;;
56291;SDS011;54008;53.606;9.462;2022-11-20T08:11:27;8.23;;;3.95;;
56291;SDS011;54008;53.606;9.462;2022-11-20T08:14:11;5.75;;;3.85;;
56291;SDS011;54008;53.606;9.462;2022-11-20T08:16:37;6.72;;;3.20;;
56291;SDS011;54008;53.606;9.462;2022-11-20T08:19:06;9.48;;;4.35;;
56291;SDS011;54008;53.606;9.462;2022-11-20T08:21:32;7.65;;;4.63;;
56291;SDS011;54008;53.606;9.462;2022-11-20T08:23:58;6.10;;;3.70;;
56291;SDS011;54008;53.606;9.462;2022-11-20T08:26:23;6.95;;;3.90;;
56291;SDS011;54008;53.606;9.462;2022-11-20T08:28:52;6.72;;;4.10;;
56291;SDS011;54008;53.606;9.462;2022-11-20T08:31:19;7.80;;;4.25;;
56291;SDS011;54008;53.606;9.462;2022-11-20T08:33:44;8.68;;;4.55;;
56291;SDS011;54008;53.606;9.462;2022-11-20T08:36:09;11.93;;;4.78;;
56291;SDS011;54008;53.606;9.462;2022-11-20T08:38:35;10.95;;;4.65;;
56291;SDS011;54008;53.606;9.462;2022-11-20T08:41:00;8.07;;;5.05;;
56291;SDS011;54008;53.606;9.462;2022-11-20T08:43:46;11.60;;;4.90;;
56291;SDS011;54008;53.606;9.462;2022-11-20T08:46:12;6.20;;;3.75;;
56291;SDS011;54008;53.606;9.462;2022-11-20T08:48:37;8.82;;;4.28;;
56291;SDS011;54008;53.606;9.462;2022-11-20T08:51:02;10.05;;;4.72;;
56291;SDS011;54008;53.606;9.462;2022-11-20T08:53:28;8.57;;;4.22;;
56291;SDS011;54008;53.606;9.462;2022-11-20T08:55:53;7.90;;;4.70;;
56291;SDS011;54008;53.606;9.462;2022-11-20T08:58:18;10.75;;;4.68;;
56291;SDS011;54008;53.606;9.462;2022-11-20T09:00:44;13.05;;;5.20;;
56291;SDS011;54008;53.606;9.462;2022-11-20T09:03:09;9.30;;;5.03;;
56291;SDS011;54008;53.606;9.462;2022-11-20T09:05:34;8.10;;;4.65;;
56291;SDS011;54008;53.606;9.462;2022-11-20T09:08:00;10.82;;;4.93;;
56291;SDS011;54008;53.606;9.462;2022-11-20T09:10:25;7.90;;;4.93;;
56291;SDS011;54008;53.606;9.462;2022-11-20T09:12:52;11.57;;;5.60;;
56291;SDS011;54008;53.606;9.462;2022-11-20T09:15:18;10.13;;;5.25;;
56291;SDS011;54008;53.606;9.462;2022-11-20T09:18:04;9.98;;;5.55;;
56291;SDS011;54008;53.606;9.462;2022-11-20T09:20:29;9.55;;;5.45;;
56291;SDS011;54008;53.606;9.462;2022-11-20T09:22:55;9.48;;;6.07;;
56291;SDS011;54008;53.606;9.462;2022-11-20T09:25:21;9.73;;;5.75;;
56291;SDS011;54008;53.606;9.462;2022-11-20T09:27:47;11.52;;;6.07;;
56291;SDS011;54008;53.606;9.462;2022-11-20T09:30:13;7.82;;;5.80;;
56291;SDS011;54008;53.606;9.462;2022-11-20T09:32:39;9.52;;;5.38;;
56291;SDS011;54008;53.606;9.462;2022-11-20T09:35:05;11.13;;;6.25;;
56291;SDS011;54008;53.606;9.462;2022-11-20T09:37:30;10.88;;;5.72;;
56291;SDS011;54008;53.606;9.462;2022-11-20T09:39:55;9.98;;;5.88;;
56291;SDS011;54008;53.606;9.462;2022-11-20T09:42:27;8.90;;;5.80;;
56291;SDS011;54008;53.606;9.462;2022-11-20T09:48:11;6.93;;;4.70;;
56291;SDS011;54008;53.606;9.462;2022-11-20T09:50:59;8.27;;;4.53;;
56291;SDS011;54008;53.606;9.462;2022-11-20T09:53:52;7.47;;;4.30;;
56291;SDS011;54008;53.606;9.462;2022-11-20T09:56:40;5.45;;;4.32;;
56291;SDS011;54008;53.606;9.462;2022-11-20T10:01:53;8.90;;;4.63;;
56291;SDS011;54008;53.606;9.462;2022-11-20T10:04:20;7.35;;;4.10;;
56291;SDS011;54008;53.606;9.462;2022-11-20T10:06:48;6.82;;;3.45;;
56291;SDS011;54008;53.606;9.462;2022-11-20T10:09:23;6.22;;;3.60;;
56291;SDS011;54008;53.606;9.462;2022-11-20T10:14:33;6.18;;;4.10;;
56291;SDS011;54008;53.606;9.462;2022-11-20T10:17:25;7.20;;;4.57;;
56291;SDS011;54008;53.606;9.462;2022-11-20T10:25:13;6.80;;;4.63;;
56291;SDS011;54008;53.606;9.462;2022-11-20T10:28:00;7.07;;;5.07;;
56291;SDS011;54008;53.606;9.462;2022-11-20T10:30:43;7.82;;;5.05;;
56291;SDS011;54008;53.606;9.462;2022-11-20T10:33:13;7.32;;;4.80;;
56291;SDS011;54008;53.606;9.462;2022-11-20T10:35:49;9.50;;;6.03;;
56291;SDS011;54008;53.606;9.462;2022-11-20T10:38:19;8.98;;;5.22;;
56291;SDS011;54008;53.606;9.462;2022-11-20T10:40:54;6.15;;;4.32;;
56291;SDS011;54008;53.606;9.462;2022-11-20T10:43:44;5.75;;;4.13;;
56291;SDS011;54008;53.606;9.462;2022-11-20T10:46:17;6.88;;;4.43;;
56291;SDS011;54008;53.606;9.462;2022-11-20T10:48:46;7.57;;;4.60;;
56291;SDS011;54008;53.606;9.462;2022-11-20T10:51:18;6.28;;;4.60;;
56291;SDS011;54008;53.606;9.462;2022-11-20T10:54:12;8.55;;;4.70;;
56291;SDS011;54008;53.606;9.462;2022-11-20T10:57:14;7.05;;;5.00;;
56291;SDS011;54008;53.606;9.462;2022-11-20T11:02:47;7.68;;;4.78;;
56291;SDS011;54008;53.606;9.462;2022-11-20T11:07:45;6.35;;;4.35;;
56291;SDS011;54008;53.606;9.462;2022-11-20T11:10:22;6.57;;;4.28;;
56291;SDS011;54008;53.606;9.462;2022-11-20T11:12:52;7.18;;;4.68;;
56291;SDS011;54008;53.606;9.462;2022-11-20T11:15:26;6.95;;;4.60;;
56291;SDS011;54008;53.606;9.462;2022-11-20T11:17:54;9.43;;;4.70;;
56291;SDS011;54008;53.606;9.462;2022-11-20T11:20:20;6.68;;;4.32;;
56291;SDS011;54008;53.606;9.462;2022-11-20T11:22:48;10.35;;;5.68;;
56291;SDS011;54008;53.606;9.462;2022-11-20T11:25:19;7.13;;;5.30;;
56291;SDS011;54008;53.606;9.462;2022-11-20T11:27:48;6.63;;;5.00;;
56291;SDS011;54008;53.606;9.462;2022-11-20T11:30:15;8.00;;;5.30;;
56291;SDS011;54008;53.606;9.462;2022-11-20T11:32:41;9.90;;;5.65;;
56291;SDS011;54008;53.606;9.462;2022-11-20T11:35:21;11.60;;;6.60;;
56291;SDS011;54008;53.606;9.462;2022-11-20T11:37:52;8.38;;;5.47;;
56291;SDS011;54008;53.606;9.462;2022-11-20T11:40:20;9.30;;;6.43;;
56291;SDS011;54008;53.606;9.462;2022-11-20T11:42:49;10.98;;;6.32;;
56291;SDS011;54008;53.606;9.462;2022-11-20T11:45:19;13.13;;;8.05;;
56291;SDS011;54008;53.606;9.462;2022-11-20T11:47:48;11.82;;;7.30;;
56291;SDS011;54008;53.606;9.462;2022-11-20T11:50:15;9.70;;;7.03;;
56291;SDS011;54008;53.606;9.462;2022-11-20T11:52:47;9.68;;;6.30;;
56291;SDS011;54008;53.606;9.462;2022-11-20T11:55:19;9.40;;;6.43;;
56291;SDS011;54008;53.606;9.462;2022-11-20T12:01:07;13.25;;;7.82;;
56291;SDS011;54008;53.606;9.462;2022-11-20T12:03:44;14.27;;;8.65;;
56291;SDS011;54008;53.606;9.462;2022-11-20T12:06:39;12.60;;;7.45;;
56291;SDS011;54008;53.606;9.462;2022-11-20T12:09:09;11.57;;;7.65;;
56291;SDS011;54008;53.606;9.462;2022-11-20T12:11:37;10.32;;;7.55;;
56291;SDS011;54008;53.606;9.462;2022-11-20T12:14:52;10.52;;;7.18;;
56291;SDS011;54008;53.606;9.462;2022-11-20T12:17:03;11.50;;;7.55;;
56291;SDS011;54008;53.606;9.462;2022-11-20T12:19:32;12.93;;;7.65;;
56291;SDS011;54008;53.606;9.462;2022-11-20T12:24:45;13.85;;;8.77;;
56291;SDS011;54008;53.606;9.462;2022-11-20T12:30:08;7.22;;;4.88;;
56291;SDS011;54008;53.606;9.462;2022-11-20T12:44:19;7.35;;;5.07;;
56291;SDS011;54008;53.606;9.462;2022-11-20T12:48:03;8.32;;;5.25;;
56291;SDS011;54008;53.606;9.462;2022-11-20T12:53:07;5.55;;;3.53;;
56291;SDS011;54008;53.606;9.462;2022-11-20T12:58:58;4.93;;;3.30;;
56291;SDS011;54008;53.606;9.462;2022-11-20T13:01:40;4.40;;;2.53;;
56291;SDS011;54008;53.606;9.462;2022-11-20T13:06:46;5.30;;;3.47;;
56291;SDS011;54008;53.606;9.462;2022-11-20T13:09:13;4.32;;;3.00;;
56291;SDS011;54008;53.606;9.462;2022-11-20T13:14:47;4.28;;;3.33;;
56291;SDS011;54008;53.606;9.462;2022-11-20T13:17:22;6.65;;;3.35;;
56291;SDS011;54008;53.606;9.462;2022-11-20T13:19:55;4.60;;;3.00;;
56291;SDS011;54008;53.606;9.462;2022-11-20T13:22:24;4.43;;;3.20;;
56291;SDS011;54008;53.606;9.462;2022-11-20T13:25:21;5.18;;;3.05;;
56291;SDS011;54008;53.606;9.462;2022-11-20T13:27:48;5.13;;;2.95;;
56291;SDS011;54008;53.606;9.462;2022-11-20T13:30:15;7.28;;;3.00;;
56291;SDS011;54008;53.606;9.462;2022-11-20T13:32:49;5.60;;;3.60;;
56291;SDS011;54008;53.606;9.462;2022-11-20T13:35:24;4.88;;;3.03;;
56291;SDS011;54008;53.606;9.462;2022-11-20T13:38:02;4.72;;;3.30;;
56291;SDS011;54008;53.606;9.462;2022-11-20T13:40:30;6.18;;;3.30;;
56291;SDS011;54008;53.606;9.462;2022-11-20T13:45:53;4.47;;;3.35;;
56291;SDS011;54008;53.606;9.462;2022-11-20T13:48:20;5.32;;;3.15;;
56291;SDS011;54008;53.606;9.462;2022-11-20T13:51:49;5.13;;;3.25;;
56291;SDS011;54008;53.606;9.462;2022-11-20T13:54:04;25.60;;;10.40;;
56291;SDS011;54008;53.606;9.462;2022-11-20T13:57:10;4.28;;;3.08;;
56291;SDS011;54008;53.606;9.462;2022-11-20T14:00:00;7.45;;;4.22;;
56291;SDS011;54008;53.606;9.462;2022-11-20T14:02:36;9.77;;;5.00;;
56291;SDS011;54008;53.606;9.462;2022-11-20T14:05:02;15.02;;;7.07;;
56291;SDS011;54008;53.606;9.462;2022-11-20T14:07:37;14.45;;;7.03;;
56291;SDS011;54008;53.606;9.462;2022-11-20T14:10:18;6.82;;;4.00;;
56291;SDS011;54008;53.606;9.462;2022-11-20T14:12:45;4.55;;;3.20;;
56291;SDS011;54008;53.606;9.462;2022-11-20T14:15:30;4.57;;;3.00;;
56291;SDS011;54008;53.606;9.462;2022-11-20T14:17:57;12.45;;;8.15;;
56291;SDS011;54008;53.606;9.462;2022-11-20T14:20:25;19.08;;;7.45;;
56291;SDS011;54008;53.606;9.462;2022-11-20T14:22:54;10.52;;;6.82;;
56291;SDS011;54008;53.606;9.462;2022-11-20T14:25:23;8.98;;;6.05;;
56291;SDS011;54008;53.606;9.462;2022-11-20T14:27:55;9.88;;;4.20;;
56291;SDS011;54008;53.606;9.462;2022-11-20T14:30:26;6.65;;;3.72;;
56291;SDS011;54008;53.606;9.462;2022-11-20T14:33:01;4.25;;;3.15;;
56291;SDS011;54008;53.606;9.462;2022-11-20T14:35:29;5.72;;;2.90;;
56291;SDS011;54008;53.606;9.462;2022-11-20T14:37:56;4.57;;;2.88;;
56291;SDS011;54008;53.606;9.462;2022-11-20T14:40:23;4.25;;;2.88;;
56291;SDS011;54008;53.606;9.462;2022-11-20T14:43:00;4.03;;;2.70;;
56291;SDS011;54008;53.606;9.462;2022-11-20T14:45:26;4.70;;;3.47;;
56291;SDS011;54008;53.606;9.462;2022-11-20T14:47:53;5.82;;;3.70;;
56291;SDS011;54008;53.606;9.462;2022-11-20T14:50:24;6.40;;;3.55;;
56291;SDS011;54008;53.606;9.462;2022-11-20T14:58:01;6.90;;;4.03;;
56291;SDS011;54008;53.606;9.462;2022-11-20T15:00:44;6.57;;;4.53;;
56291;SDS011;54008;53.606;9.462;2022-11-20T15:03:22;17.77;;;8.13;;
56291;SDS011;54008;53.606;9.462;2022-11-20T15:05:48;12.15;;;7.68;;
56291;SDS011;54008;53.606;9.462;2022-11-20T15:08:15;10.93;;;6.18;;
56291;SDS011;54008;53.606;9.462;2022-11-20T15:10:51;6.90;;;4.82;;
56291;SDS011;54008;53.606;9.462;2022-11-20T15:13:20;4.28;;;3.22;;
56291;SDS011;54008;53.606;9.462;2022-11-20T15:16:03;5.55;;;3.78;;
56291;SDS011;54008;53.606;9.462;2022-11-20T15:18:39;8.10;;;4.88;;
56291;SDS011;54008;53.606;9.462;2022-11-20T15:21:17;6.38;;;4.53;;
56291;SDS011;54008;53.606;9.462;2022-11-20T15:23:45;4.93;;;3.28;;
56291;SDS011;54008;53.606;9.462;2022-11-20T15:26:12;5.93;;;4.15;;
56291;SDS011;54008;53.606;9.462;2022-11-20T15:28:41;11.20;;;6.32;;
56291;SDS011;54008;53.606;9.462;2022-11-20T15:31:12;9.18;;;4.45;;
56291;SDS011;54008;53.606;9.462;2022-11-20T15:33:38;7.97;;;4.35;;
56291;SDS011;54008;53.606;9.462;2022-11-20T15:36:03;6.15;;;4.15;;
56291;SDS011;54008;53.606;9.462;2022-11-20T15:38:29;5.40;;;3.15;;
56291;SDS011;54008;53.606;9.462;2022-11-20T15:40:54;5.60;;;3.90;;
56291;SDS011;54008;53.606;9.462;2022-11-20T15:43:19;8.55;;;4.57;;
56291;SDS011;54008;53.606;9.462;2022-11-20T15:48:12;5.78;;;3.97;;
56291;SDS011;54008;53.606;9.462;2022-11-20T15:51:01;7.18;;;4.07;;
56291;SDS011;54008;53.606;9.462;2022-11-20T15:53:39;7.18;;;3.85;;
56291;SDS011;54008;53.606;9.462;2022-11-20T15:58:35;6.13;;;4.28;;
56291;SDS011;54008;53.606;9.462;2022-11-20T16:01:01;6.38;;;4.80;;
56291;SDS011;54008;53.606;9.462;2022-11-20T16:03:26;8.13;;;5.38;;
56291;SDS011;54008;53.606;9.462;2022-11-20T16:05:51;6.50;;;4.65;;
56291;SDS011;54008;53.606;9.462;2022-11-20T16:08:16;8.18;;;5.20;;